Aviation Digital Data Service (ADDS)

Output produced by METARs form (0858 UTC 17 November 2018)
found at http://www.aviationweather.gov/metar/data/
 
LIMA 170800Z VRB02KT 9000 BKN030 07/04 Q1027
LIMG 170750Z 02008KT 320V070 CAVOK 11/01 Q1023
LIEA 170850Z 05009KT CAVOK 14/09 Q1017
TAF LIEA 170500Z 1706/1806 04014KT 9999 FEW030 
     TEMPO 1709/1718 4000 SHRA
       
LIMW 170850Z AUTO 07010KT 040V100 9999 FEW038/// OVC094/// 07/M00 Q1025
TAF LIMW 170800Z 1709/1718 10010KT 9999 OVC070
       
LIPA 170755Z 01001KT CAVOK 06/02 Q1026 RMK SKC VIS MIN 9999 WIND THR05 /////KT WIND THR23 /////KT A3032 BLU
TAF LIPA 170800Z 1709/1718 VRB05KT CAVOK
       
LIME 170850Z 32004KT 9999 BKN070 09/04 Q1026 NOSIG
TAF LIME 170500Z 1706/1806 02005KT 9999 BKN040
       
LIPE 170850Z 27006KT 250V320 9999 FEW050 SCT070 07/04 Q1026
TAF LIPE 170500Z 1706/1806 28007KT 8000 SCT040 
     BECMG 1710/1712 04010KT 
     BECMG 1718/1720 26006KT
       
LIPB 170850Z 00000KT 9999 FEW080 05/05 Q1028
TAF LIPB 170500Z 1706/1806 VRB05KT 9999 SCT040
       
LIRN 170850Z 06009KT CAVOK 13/02 Q1018 NOSIG
TAF LIRN 170500Z 1706/1806 04015KT 9999 FEW030 
     TEMPO 1710/1716 04016G26KT
       
LIBR 170850Z 15007KT 9999 SCT020 12/08 Q1018
TAF LIBR 170500Z 1706/1806 07015KT 9999 SCT030 
     TEMPO 1718/1806 06015G25KT 
     TEMPO 1721/1724 4000 SHRA
       
LICC 170850Z 04006KT 360V080 9999 FEW030 BKN050 16/11 Q1014
TAF LICC 170500Z 1706/1806 04014KT 9999 SCT040
       
LIPC 170755Z 04014KT 9999 BKN035 10/04 Q1023 RMK BKN VIS MIN 9999 WIND THR11 05012KT WIND THR29 06016KT BLU
TAF LIPC 170800Z 1709/1718 04010KT 9999 BKN040 
     TEMPO 1709/1712 04015G27KT 5000 RA
       
LIRA 170850Z 01007KT CAVOK 10/03 Q1018
TAF LIRA 170500Z 1706/1806 04008KT 9999 FEW040
       
LIBC 170750Z 35015G26KT 9999 FEW015 12/09 Q1016
TAF LIBC 170752Z 1708/1806 02016G26KT 9999 SCT030 
     TEMPO 1709/1716 SHRA 
     TEMPO 1721/1806 TSRA
       
LIED 170755Z 23002KT 9999 FEW010 SCT020 BKN060 13/11 Q1015 RMK OVC VIS MIN 9999 WIND THR35 /////KT WIND THR17 /////KT BLU
TAF LIED 170800Z 1709/1718 09010KT 9999 SCT020 BKN060 
     TEMPO1710/1713 5000 TSRA FEW015CB BKN030
       
LIEE 170850Z 01003KT 340V040 9999 SCT035 SCT050 14/11 Q1016
TAF LIEE 170500Z 1706/1806 VRB05KT 9999 FEW030 
     BECMG 1706/1708 14012KT 
     TEMPO 1708/1715 4000 TSRA 
     BECMG 1718/1720 VRB05KT
       
LIPY 170750Z 08008KT 050V130 9999 SCT040 BKN070 13/02 Q1022
TAF LIPY 170500Z 1706/1806 06012KT 9999 SCT040
       
LIRF 170850Z 05009KT CAVOK 13/04 Q1019 NOSIG
TAF LIRF 170500Z 1706/1812 04012KT 9999 FEW040
       
LIMJ 170850Z 02011KT 350V060 CAVOK 13/M00 Q1023
TAF LIMJ 170500Z 1706/1806 02010KT CAVOK
       
LIPL 170755Z 08006KT 9999 SCT080 08/07 Q1026 RMK SCT VIS MIN 9999 WIND THR31 07005KT WIND THR13 08006KT BLU
TAF LIPL 170800Z 1709/1718 08010KT 9999 SCT050
       
LIBF 170750Z 29004KT 9999 FEW040 09/06 Q1019
LIBV 170755Z 33010KT 9999 SCT035 10/08 Q1017 RMK SCT VIS MIN 9999 WIND THR32 35010KT WIND THR14 33010KT BLU
TAF LIBV 170800Z 1709/1718 36010KT 9999 BKN025 
     TEMPO 1709/1714 06010KT 5000 SHRA SCT012 BKN020
       
LIRM 170755Z /////KT CAVOK 12/06 Q1017
TAF LIRM 170800Z 1709/1718 04012KT CAVOK 
     TEMPO 1711/1714 04015G25KT
       
LIRS 170755Z 36010KT CAVOK 07/04 Q1020 RMK SCT SCT080 VIS MIN 9999 WIND THR03 36010KT WIND THR21 02012KT BLU
TAF LIRS 170800Z 1709/1718 01012KT CAVOK 
     TEMPO 1711/1715 01015G25KT
       
LIBG 170750Z 00000KT CAVOK 11/08 Q1017
TAF LIBG 170800Z 1709/1718 02012KT 9999 SCT030 
     TEMPO 1709/1712 SHRA
       
LIPS 170755Z 04004KT CAVOK 09/05 Q1027 RMK SKC VIS MIN 9999 WIND THR26 01004KT WIND THR08 02005KT BLU
TAF LIPS 170800Z 1709/1718 05010KT 9999 SCT050
       
LICA 170750Z 04012KT 010V080 9999 FEW020 14/06 Q1015
TAF LICA 170500Z 1706/1806 VRB05KT 9999 FEW030 SCT050 
     BECMG 1708/1710 07014KT 
     BECMG 1718/1720 VRB05KT
       
LICD 170750Z 05005KT 9999 -RA SCT020 19/15 Q1013
TAF LICD 170500Z 1706/1806 04012KT 9999 SCT030 
     TEMPO 1706/1712 TSRA 
     TEMPO 1715/1721 4000 TSRA 
     TEMPO 1721/1806 4000 SHRA
       
LIRL 170755Z 00000KT CAVOK 08/05 Q1018 RMK SKC MON LIB NC VIS MIN 9999 WIND THR12 00000KT WIND THR30 00000KT BLU
TAF COR LIRL 170642Z 1707/1715 05007KT 9999 FEW050
       
LIBN 170755Z VRB01KT 9999 -RA SCT030 10/09 Q1017 RMK BKN BKN070 VIS MIN 9999 WIND THR14 VRB02KT WIND THR32 VRB02KT BLU
LIMZ 170750Z 34004KT 9999 BKN090 07/04 Q1026
TAF LIMZ 170500Z 1706/1806 36005KT 6000 BKN020
       
LIML 170850Z 08003KT 360V130 9999 SCT060 09/01 Q1027 NOSIG
TAF LIML 170500Z 1706/1806 14007KT 9999 BKN060
       
LIMC 170850Z 36005KT 9999 BKN055 08/03 Q1027 NOSIG
TAF LIMC 170500Z 1706/1812 36005KT 9999 BKN040 
     TEMPO 1706/1710 RA
       
LIPO 170750Z 09004KT 9999 FEW070 06/04 Q1026
TAF LIPO 170500Z 1706/1806 07006KT CAVOK
       
LIEO 170850Z VRB03KT 9000 -RA BKN030 12/10 Q1018
TAF LIEO 170500Z 1706/1806 04012KT 9999 SCT030 
     TEMPO 1706/1721 4000 TSRA
       
LIPU 170700Z 03006KT CAVOK 06/01 Q1026
LICJ 170850Z 09016KT 9999 FEW040 16/09 Q1014
TAF LICJ 170500Z 1706/1806 07013KT 9999 SCT030
       
LIBD 170850Z VRB04KT 9999 FEW020 SCT040 12/08 Q1018
TAF LIBD 170500Z 1706/1806 05013KT 9999 SCT040 
     TEMPO 1706/1714 4000 SHRA
       
LICG 170755Z 08011KT 9999 SCT010TCU FEW015TCU 15/13 Q1013 RMK BKN SCT060 VIS MIN 9999 WIND THR08 04014KT WIND THR21 10010KT BLU
TAF LICG 170800Z 1709/1718 07012KT 9999 SCT015 
     PROB30 
     TEMPO 1709/1711 5000 TSRA FEW015CB BKN020
       
LIMP 170750Z VRB01KT 7000 SCT015 BKN025 07/04 Q1027
TAF LIMP 170500Z 1706/1806 04007KT 9999 BKN030 
     TEMPO 1706/1713 RA
       
LIRQ 170850Z 05010KT 010V110 9999 FEW030 BKN060 11/04 Q1023
TAF LIRQ 170500Z 1706/1806 04010KT 9999 FEW040 
     BECMG 1706/1708 04015G25KT 
     BECMG 1718/1720 04012KT
       
LIRZ 170750Z 03014KT 9999 SCT050 10/02 Q1020
TAF LIRZ 170500Z 1706/1806 02008KT 9999 SCT040 
     BECMG 1707/1710 03015G25KT 
     BECMG 1718/1720 03010KT
       
LIBP 170750Z 21007KT 9999 FEW030 BKN055 11/07 Q1021
TAF LIBP 170500Z 1706/1806 VRB05KT 9999 SCT030 
     TEMPO 1706/1709 4000 SHRA 
     BECMG 0710/1712 03010KT 
     TEMPO 1721/1806 SHRA
       
LIMS 170755Z 20001KT 9999 FEW045 05/05 Q1025 RMK SCT VIS MIN 9999 WIND THR30 00000KT BLU
LIRP 170845Z 07009KT 9999 SCT060 13/04 Q1022 NOSIG
TAF COR LIRP 170500Z 1706/1806 06015KT 9999 FEW070 
     TEMPO 1706/1718 06015G27KT
       
LIRI 170800Z 06008KT CAVOK 13/03 Q1017
LIRE 170755Z 02008KT CAVOK 11/07 Q1018 RMK SKC VIS MIN 9999 WIND THR13 04007KT WIND THR31 /////KT BLU
TAF LIRE 170800Z 1709/1718 03012KT CAVOK
       
LICR 170750Z 05002KT 9999 FEW050 14/13 Q1015
TAF LICR 170500Z 1706/1806 35012KT 9999 SCT030
       
LIPR 170850Z 05011KT 020V080 8000 FEW020 BKN050 12/06 Q1023 RERA
TAF LIPR 170800Z 1709/1718 05014KT 9999 SCT040
       
LIPQ 170850Z 04004KT 340V100 CAVOK 11/00 Q1027
TAF LIPQ 170500Z 1706/1806 08015KT CAVOK
       
LICZ 170755Z /////KT 9000 FEW030 BKN050 16/16 Q1015 RMK BKN VIS MIN 9000 WIND THR28 05004KT WIND THR10 02004KT A2999 BLU
TAF LICZ 170800Z 1709/1718 06013KT 9000 SCT030 BKN050 
     PROB30 
     TEMPO 1709/1713 6000 RA 
     BECMG 1712/1714 FEW030 SCT070
       
LIMF 170850Z 03004KT 9999 SCT055 BKN110 08/05 Q1027
TAF LIMF 170500Z 1706/1806 VRB05KT 6000 BKN050
       
LICT 170755Z VRB01KT 9999 FEW020 SCT050 15/11 Q1014 RMK SCT VIS MIN 9999 WIND THR13 00000KT BLU
TAF LICT 170800Z 1709/1718 06006KT 9999 FEW020 SCT050
       
LIPH 170850Z 02006KT 340V050 CAVOK 10/01 Q1027
TAF LIPH 170500Z 1706/1806 04012KT 9999 SCT040
       
LIRU 170750Z VRB03KT CAVOK 07/05 Q1019
TAF LIRU 170800Z 1709/1718 05007KT CAVOK
       
LIPZ 170850Z 03009KT CAVOK 09/02 Q1026 NOSIG
TAF LIPZ 170500Z 1706/1812 06015KT CAVOK 
     TEMPO 1712/1724 06016G26KT
       
LIPX 170850Z 06006KT 040V110 CAVOK 07/00 Q1027
TAF LIPX 170800Z 1709/1718 07008KT 9999 SCT060
       
LIRV 170755Z /////KT CAVOK 09/02 Q1019
TAF LIRV 170800Z 1709/1718 03013KT CAVOK